createdAt,value
2023-03-11T00:01:10.401Z,15.57
2023-03-11T00:03:37.537Z,15.55
2023-03-11T00:06:05.113Z,15.00
2023-03-11T00:08:32.247Z,15.27
2023-03-11T00:11:00.588Z,13.80
2023-03-11T00:13:29.478Z,15.50
2023-03-11T00:15:57.914Z,15.25
2023-03-11T00:18:28.055Z,15.38
2023-03-11T00:20:56.878Z,15.52
2023-03-11T00:23:25.275Z,14.85
2023-03-11T00:25:52.889Z,16.23
2023-03-11T00:28:22.242Z,15.93
2023-03-11T00:30:49.664Z,16.20
2023-03-11T00:33:16.940Z,17.27
2023-03-11T00:35:44.842Z,18.10
2023-03-11T00:38:16.735Z,17.45
2023-03-11T00:40:46.972Z,14.73
2023-03-11T00:43:15.224Z,17.37
2023-03-11T00:45:42.963Z,17.27
2023-03-11T00:48:11.317Z,18.90
2023-03-11T00:50:38.759Z,19.67
2023-03-11T00:53:06.657Z,17.00
2023-03-11T00:55:35.152Z,16.83
2023-03-11T00:58:07.298Z,16.70
2023-03-11T01:00:44.252Z,19.20
2023-03-11T01:03:11.312Z,17.83
2023-03-11T01:05:38.621Z,19.05
2023-03-11T01:08:05.822Z,20.30
2023-03-11T01:10:36.725Z,18.40
2023-03-11T01:13:04.782Z,22.50
2023-03-11T01:15:35.019Z,16.92
2023-03-11T01:18:03.058Z,15.48
2023-03-11T01:20:32.748Z,14.98
2023-03-11T01:22:59.768Z,15.18
2023-03-11T01:25:28.461Z,14.48
2023-03-11T01:27:59.167Z,14.65
2023-03-11T01:30:27.653Z,14.90
2023-03-11T01:32:56.817Z,16.17
2023-03-11T01:35:26.615Z,16.08
2023-03-11T01:37:55.332Z,13.95
2023-03-11T01:40:34.025Z,11.60
2023-03-11T01:43:07.693Z,13.55
2023-03-11T01:46:02.367Z,13.10
2023-03-11T01:48:30.930Z,10.95
2023-03-11T01:50:58.750Z,12.02
2023-03-11T01:53:26.387Z,10.63
2023-03-11T01:55:53.778Z,10.45
2023-03-11T01:58:25.311Z,9.13
2023-03-11T02:00:55.097Z,10.23
2023-03-11T02:03:29.297Z,9.88
2023-03-11T02:05:57.673Z,9.52
2023-03-11T02:08:25.134Z,8.45
2023-03-11T02:10:54.176Z,9.50
2023-03-11T02:13:22.218Z,9.85
2023-03-11T02:15:49.822Z,7.45
2023-03-11T02:18:20.288Z,8.50
2023-03-11T02:21:06.140Z,9.30
2023-03-11T02:23:59.683Z,8.38
2023-03-11T02:26:39.540Z,8.27
2023-03-11T02:29:09.500Z,8.43
2023-03-11T02:31:43.105Z,8.25
2023-03-11T02:34:23.573Z,7.90
2023-03-11T02:36:50.882Z,7.50
2023-03-11T02:39:41.073Z,8.77
2023-03-11T02:42:38.177Z,7.00
2023-03-11T02:45:09.815Z,8.13
2023-03-11T02:47:38.788Z,8.30
2023-03-11T02:50:11.483Z,8.32
2023-03-11T02:52:38.596Z,11.02
2023-03-11T02:55:07.461Z,9.80
2023-03-11T02:57:34.506Z,10.13
2023-03-11T03:00:08.749Z,8.98
2023-03-11T03:02:36.902Z,8.13
2023-03-11T03:05:05.867Z,8.48
2023-03-11T03:07:33.617Z,9.13
2023-03-11T03:10:01.981Z,8.25
2023-03-11T03:12:30.099Z,8.20
2023-03-11T03:14:58.295Z,8.88
2023-03-11T03:17:25.766Z,8.75
2023-03-11T03:19:53.222Z,8.40
2023-03-11T03:22:20.291Z,8.60
2023-03-11T03:24:48.665Z,8.05
2023-03-11T03:27:15.912Z,8.10
2023-03-11T03:29:43.259Z,7.38
2023-03-11T03:32:10.569Z,7.70
2023-03-11T03:34:37.944Z,7.30
2023-03-11T03:37:05.150Z,7.28
2023-03-11T03:39:33.151Z,8.27
2023-03-11T03:42:00.500Z,7.65
2023-03-11T03:44:31.081Z,7.38
2023-03-11T03:46:59.712Z,7.28
2023-03-11T03:49:27.581Z,6.45
2023-03-11T03:51:55.281Z,7.38
2023-03-11T03:54:32.469Z,5.85
2023-03-11T03:56:59.584Z,7.00
2023-03-11T03:59:26.952Z,6.72
2023-03-11T04:01:57.990Z,6.00
2023-03-11T04:04:26.743Z,7.05
2023-03-11T04:06:54.443Z,6.35
2023-03-11T04:09:22.089Z,4.70
2023-03-11T04:11:49.197Z,5.80
2023-03-11T04:14:17.821Z,4.97
2023-03-11T04:16:52.140Z,5.65
2023-03-11T04:19:19.447Z,6.63
2023-03-11T04:21:46.628Z,5.65
2023-03-11T04:24:13.950Z,4.85
2023-03-11T04:26:41.056Z,4.53
2023-03-11T04:29:13.132Z,4.80
2023-03-11T04:31:44.374Z,4.35
2023-03-11T04:34:12.467Z,5.65
2023-03-11T04:36:40.259Z,4.32
2023-03-11T04:39:08.150Z,5.40
2023-03-11T04:41:40.848Z,5.13
2023-03-11T04:44:09.834Z,5.37
2023-03-11T04:46:37.434Z,4.95
